createdAt,value
2023-05-14T00:01:19.046Z,65.85
2023-05-14T00:03:45.643Z,65.96
2023-05-14T00:06:12.336Z,66.83
2023-05-14T00:08:38.881Z,66.22
2023-05-14T00:11:05.500Z,66.93
2023-05-14T00:13:32.040Z,66.56
2023-05-14T00:15:58.591Z,67.13
2023-05-14T00:18:25.225Z,66.88
2023-05-14T00:20:51.790Z,67.00
2023-05-14T00:23:18.321Z,67.41
2023-05-14T00:25:44.871Z,66.85
2023-05-14T00:28:11.413Z,66.93
2023-05-14T00:30:38.048Z,67.29
2023-05-14T00:33:04.629Z,67.37
2023-05-14T00:35:31.270Z,67.74
2023-05-14T00:37:57.816Z,67.77
2023-05-14T00:40:26.004Z,67.68
2023-05-14T00:42:52.978Z,67.42
2023-05-14T00:45:19.584Z,68.25
2023-05-14T00:47:46.185Z,68.41
2023-05-14T00:50:12.726Z,68.41
2023-05-14T00:52:39.330Z,68.22
2023-05-14T00:55:06.348Z,68.66
2023-05-14T00:57:35.904Z,69.43
2023-05-14T01:00:02.680Z,69.58
2023-05-14T01:02:29.372Z,69.45
2023-05-14T01:04:55.961Z,69.56
2023-05-14T01:07:40.870Z,70.09
2023-05-14T01:10:10.388Z,70.27
2023-05-14T01:12:44.622Z,70.42
2023-05-14T01:15:12.841Z,70.41
2023-05-14T01:17:52.428Z,70.59
2023-05-14T01:20:19.098Z,70.30
2023-05-14T01:22:45.643Z,69.84
2023-05-14T01:25:12.194Z,70.32
2023-05-14T01:27:49.191Z,70.02
2023-05-14T01:30:29.623Z,70.38
2023-05-14T01:32:58.035Z,70.20
2023-05-14T01:35:26.136Z,70.39
2023-05-14T01:37:54.677Z,70.45
2023-05-14T01:40:21.461Z,70.62
2023-05-14T01:42:48.121Z,70.21
2023-05-14T01:45:14.651Z,70.54
2023-05-14T01:47:41.200Z,70.79
2023-05-14T01:50:07.927Z,71.04
2023-05-14T01:52:34.486Z,71.03
2023-05-14T01:55:01.177Z,70.88
2023-05-14T01:57:27.682Z,71.11
2023-05-14T01:59:54.180Z,71.52
2023-05-14T02:02:20.742Z,71.51
2023-05-14T02:04:47.228Z,71.66
2023-05-14T02:07:13.782Z,72.22
2023-05-14T02:09:40.346Z,72.45
2023-05-14T02:12:08.324Z,72.40
2023-05-14T02:14:34.909Z,72.46
2023-05-14T02:17:01.422Z,72.41
2023-05-14T02:19:27.979Z,72.53
2023-05-14T02:21:54.562Z,72.94
2023-05-14T02:24:21.077Z,73.17
2023-05-14T02:26:47.788Z,73.04
2023-05-14T02:29:14.276Z,73.37
2023-05-14T02:31:40.874Z,73.09
2023-05-14T02:34:07.447Z,73.62
2023-05-14T02:36:33.964Z,73.65
2023-05-14T02:39:00.488Z,73.99
2023-05-14T02:41:27.207Z,73.88
2023-05-14T02:43:53.950Z,74.01
2023-05-14T02:46:20.552Z,74.50
2023-05-14T02:48:47.112Z,74.42
2023-05-14T02:51:13.670Z,74.42
2023-05-14T02:53:40.173Z,75.19
2023-05-14T02:56:06.779Z,75.10
2023-05-14T02:58:33.360Z,75.54
2023-05-14T03:00:59.948Z,75.42
2023-05-14T03:03:28.921Z,75.54
2023-05-14T03:05:56.279Z,75.72
2023-05-14T03:08:22.796Z,75.83
2023-05-14T03:10:49.413Z,75.45
2023-05-14T03:13:15.927Z,75.84
2023-05-14T03:15:42.462Z,75.90
2023-05-14T03:18:09.146Z,75.79
2023-05-14T03:20:35.752Z,75.78
2023-05-14T03:23:02.318Z,75.88
2023-05-14T03:25:28.812Z,76.19
2023-05-14T03:27:55.376Z,76.34
2023-05-14T03:30:22.200Z,76.14
2023-05-14T03:32:48.947Z,76.12
2023-05-14T03:35:15.495Z,76.64
2023-05-14T03:37:42.031Z,77.01
2023-05-14T03:40:08.991Z,77.18
2023-05-14T03:42:35.522Z,76.95
2023-05-14T03:45:02.042Z,76.70
2023-05-14T03:47:28.612Z,77.36
2023-05-14T03:49:55.188Z,77.16
2023-05-14T03:52:21.740Z,77.28
2023-05-14T03:54:48.231Z,77.71
2023-05-14T03:57:14.825Z,77.65
2023-05-14T03:59:41.430Z,77.88
2023-05-14T04:02:07.978Z,77.34
2023-05-14T04:04:34.561Z,77.57
2023-05-14T04:07:01.201Z,77.75
2023-05-14T04:09:27.747Z,77.63
2023-05-14T04:11:54.260Z,77.52
2023-05-14T04:14:20.788Z,77.67
2023-05-14T04:16:47.374Z,77.97
2023-05-14T04:19:13.979Z,78.00
2023-05-14T04:21:40.668Z,78.38
2023-05-14T04:24:07.485Z,78.34
2023-05-14T04:26:34.016Z,78.18
2023-05-14T04:29:00.575Z,78.27
2023-05-14T04:31:27.179Z,78.39
2023-05-14T04:33:53.767Z,78.49
2023-05-14T04:36:20.290Z,77.96
2023-05-14T04:38:46.859Z,78.30
2023-05-14T04:41:13.388Z,78.33
2023-05-14T04:43:39.941Z,78.11
2023-05-14T04:46:06.612Z,77.73
2023-05-14T04:48:33.202Z,77.13
2023-05-14T04:50:59.772Z,77.15
2023-05-14T04:53:26.360Z,77.17
2023-05-14T04:55:52.946Z,76.53
2023-05-14T04:58:19.486Z,76.22
2023-05-14T05:00:46.167Z,76.61
2023-05-14T05:03:12.932Z,75.59
2023-05-14T05:05:39.600Z,75.64
2023-05-14T05:08:06.160Z,75.96
2023-05-14T05:10:32.748Z,75.69
2023-05-14T05:12:59.345Z,75.17
2023-05-14T05:15:26.582Z,74.83
2023-05-14T05:17:53.521Z,74.43
2023-05-14T05:20:20.059Z,74.27
2023-05-14T05:22:46.613Z,74.71
2023-05-14T05:25:13.187Z,74.41
2023-05-14T05:27:39.688Z,73.80
2023-05-14T05:30:06.902Z,74.39
2023-05-14T05:32:33.446Z,74.09
2023-05-14T05:35:00.206Z,74.30
2023-05-14T05:37:26.761Z,74.05
2023-05-14T05:39:53.314Z,74.04
2023-05-14T05:42:20.137Z,72.60
2023-05-14T05:44:46.785Z,72.91
2023-05-14T05:47:13.379Z,72.09
2023-05-14T05:49:39.937Z,72.71
2023-05-14T05:52:06.669Z,71.88
2023-05-14T05:54:33.368Z,72.35
2023-05-14T05:56:59.934Z,72.30
2023-05-14T05:59:26.524Z,72.20
2023-05-14T06:01:53.158Z,70.82
2023-05-14T06:04:19.710Z,70.98
2023-05-14T06:06:46.336Z,69.95
2023-05-14T06:09:12.826Z,69.60
2023-05-14T06:11:39.345Z,69.50
2023-05-14T06:14:05.879Z,69.17
2023-05-14T06:16:32.457Z,69.44
2023-05-14T06:18:59.066Z,68.56
2023-05-14T06:21:25.593Z,68.35
2023-05-14T06:23:52.167Z,68.03
2023-05-14T06:26:18.765Z,68.48
2023-05-14T06:28:45.317Z,67.92
2023-05-14T06:31:11.834Z,68.08
2023-05-14T06:33:38.389Z,67.67
2023-05-14T06:36:05.738Z,67.54
2023-05-14T06:38:32.447Z,67.83
2023-05-14T06:40:59.055Z,67.59
2023-05-14T06:43:25.675Z,66.92
2023-05-14T06:45:52.226Z,67.51
2023-05-14T06:48:19.186Z,66.72
2023-05-14T06:50:46.494Z,66.56
2023-05-14T06:53:13.083Z,66.76
2023-05-14T06:55:39.619Z,66.77
2023-05-14T06:58:08.396Z,66.78
2023-05-14T07:00:34.997Z,66.50
2023-05-14T07:03:01.627Z,66.68
2023-05-14T07:05:28.224Z,66.00
2023-05-14T07:07:54.747Z,65.35
2023-05-14T07:10:21.440Z,65.29
2023-05-14T07:12:48.564Z,65.13
2023-05-14T07:15:15.086Z,65.10
2023-05-14T07:17:41.716Z,64.33
2023-05-14T07:20:08.753Z,64.58
2023-05-14T07:22:35.309Z,63.74
2023-05-14T07:25:01.862Z,63.18
2023-05-14T07:27:28.439Z,62.81
2023-05-14T07:29:54.986Z,61.99
2023-05-14T07:32:21.605Z,61.83
2023-05-14T07:34:48.173Z,61.53
2023-05-14T07:37:14.744Z,60.92
2023-05-14T07:39:41.268Z,59.91
2023-05-14T07:42:07.824Z,59.82
2023-05-14T07:44:34.393Z,59.68
2023-05-14T07:47:01.014Z,59.16
2023-05-14T07:49:27.680Z,58.93
2023-05-14T07:51:54.190Z,58.27
2023-05-14T07:54:20.715Z,58.45
2023-05-14T07:56:47.223Z,57.73
2023-05-14T07:59:13.784Z,57.16
2023-05-14T08:01:40.303Z,57.05
2023-05-14T08:04:06.965Z,56.98
2023-05-14T08:06:33.633Z,55.83
2023-05-14T08:09:00.121Z,55.25
2023-05-14T08:11:26.668Z,54.80
2023-05-14T08:13:53.211Z,55.45
2023-05-14T08:16:19.818Z,54.87
2023-05-14T08:18:46.398Z,54.92
2023-05-14T08:21:12.999Z,54.27
2023-05-14T08:23:39.512Z,54.03
2023-05-14T08:26:06.027Z,53.14
2023-05-14T08:28:32.590Z,53.19
2023-05-14T08:30:59.140Z,52.61
2023-05-14T08:33:25.769Z,51.29
2023-05-14T08:35:55.412Z,51.46
2023-05-14T08:38:21.985Z,51.08
2023-05-14T08:40:57.653Z,51.16
2023-05-14T08:43:30.697Z,50.49
2023-05-14T08:46:00.952Z,49.85
2023-05-14T08:48:29.520Z,48.64
2023-05-14T08:50:56.136Z,47.34
2023-05-14T08:53:22.708Z,47.75
2023-05-14T08:55:50.987Z,47.55
2023-05-14T08:58:17.559Z,47.90
2023-05-14T09:00:44.081Z,45.72
2023-05-14T09:03:10.636Z,46.09
2023-05-14T09:05:37.256Z,44.80
2023-05-14T09:08:03.863Z,45.01
2023-05-14T09:10:30.443Z,45.27
2023-05-14T09:12:57.054Z,45.12
2023-05-14T09:15:23.696Z,45.77
2023-05-14T09:17:50.285Z,44.20
2023-05-14T09:20:16.808Z,42.34
2023-05-14T09:22:43.412Z,41.32
2023-05-14T09:25:10.628Z,40.71
2023-05-14T09:27:37.254Z,41.13
2023-05-14T09:30:07.997Z,41.48
2023-05-14T09:32:38.605Z,41.11
2023-05-14T09:35:22.036Z,40.93
2023-05-14T09:37:50.437Z,40.42
2023-05-14T09:40:17.916Z,39.57
2023-05-14T09:42:44.515Z,39.89
2023-05-14T09:45:11.222Z,39.29
2023-05-14T09:47:38.131Z,39.09
2023-05-14T09:50:05.443Z,38.49
2023-05-14T09:52:32.064Z,38.77
2023-05-14T09:54:58.623Z,38.81
2023-05-14T09:57:25.156Z,38.83
2023-05-14T09:59:51.680Z,38.89
2023-05-14T10:02:25.611Z,38.98
2023-05-14T10:04:53.633Z,39.05
2023-05-14T10:07:25.287Z,39.13
2023-05-14T10:09:57.612Z,39.26
2023-05-14T10:12:25.384Z,38.79
2023-05-14T10:14:51.939Z,37.68
2023-05-14T10:17:18.707Z,36.82
2023-05-14T10:19:51.676Z,36.21
2023-05-14T10:22:21.321Z,35.65
2023-05-14T10:24:47.976Z,35.58
2023-05-14T10:27:14.535Z,35.86
2023-05-14T10:29:41.060Z,36.74
2023-05-14T10:32:08.455Z,36.86
2023-05-14T10:34:41.805Z,36.85
2023-05-14T10:37:08.249Z,37.68
2023-05-14T10:39:47.829Z,37.94
2023-05-14T10:42:17.498Z,38.08
2023-05-14T10:45:05.280Z,37.22
2023-05-14T10:47:32.073Z,37.67
2023-05-14T10:49:59.712Z,37.43
2023-05-14T10:52:26.380Z,37.74
2023-05-14T10:54:54.624Z,38.27
2023-05-14T10:57:21.901Z,39.07
2023-05-14T10:59:53.016Z,38.32
2023-05-14T11:02:34.187Z,36.47
2023-05-14T11:05:01.996Z,35.98
2023-05-14T11:07:32.799Z,34.69
2023-05-14T11:10:01.132Z,34.68
2023-05-14T11:12:28.179Z,33.68
2023-05-14T11:14:56.966Z,33.04
2023-05-14T11:17:24.433Z,33.72
2023-05-14T11:19:51.245Z,34.94
2023-05-14T11:22:17.939Z,35.24
2023-05-14T11:24:44.454Z,36.57
2023-05-14T11:27:11.071Z,35.96
2023-05-14T11:29:38.153Z,36.23
2023-05-14T11:32:07.722Z,35.33
2023-05-14T11:34:34.418Z,35.58
2023-05-14T11:37:06.125Z,35.68
2023-05-14T11:39:33.938Z,36.45
2023-05-14T11:42:02.494Z,36.81
2023-05-14T11:44:29.005Z,37.43
2023-05-14T11:46:58.935Z,37.04
2023-05-14T11:49:25.764Z,38.03
2023-05-14T11:52:02.093Z,38.23
2023-05-14T11:54:29.132Z,36.40
2023-05-14T11:56:56.158Z,34.29
2023-05-14T11:59:29.371Z,33.81
2023-05-14T12:01:55.937Z,34.13
2023-05-14T12:04:22.638Z,33.89
2023-05-14T12:06:49.901Z,34.14
2023-05-14T12:09:19.990Z,33.16
2023-05-14T12:11:47.118Z,33.56
2023-05-14T12:14:23.104Z,32.81
2023-05-14T12:16:50.103Z,33.17
2023-05-14T12:19:19.117Z,33.72
2023-05-14T12:21:47.682Z,33.67
2023-05-14T12:24:16.772Z,33.32
2023-05-14T12:26:51.001Z,32.99
2023-05-14T12:29:17.536Z,32.25
2023-05-14T12:31:47.706Z,31.93
2023-05-14T12:34:14.568Z,31.14
2023-05-14T12:36:41.222Z,31.10
2023-05-14T12:39:08.023Z,30.60
2023-05-14T12:41:34.593Z,30.13
2023-05-14T12:44:02.605Z,30.35
2023-05-14T12:46:29.277Z,29.90
2023-05-14T12:48:55.956Z,29.36
2023-05-14T12:51:22.526Z,28.87
2023-05-14T12:53:49.075Z,29.08
2023-05-14T12:56:15.589Z,28.83
2023-05-14T12:58:42.111Z,28.70
2023-05-14T13:01:08.834Z,28.60
2023-05-14T13:03:35.459Z,29.22
2023-05-14T13:06:01.995Z,30.37
2023-05-14T13:08:28.598Z,30.79
2023-05-14T13:10:55.272Z,31.59
2023-05-14T13:13:22.174Z,32.14
2023-05-14T13:15:48.961Z,32.83
2023-05-14T13:18:16.162Z,32.21
2023-05-14T13:20:43.314Z,32.56
2023-05-14T13:23:10.060Z,33.20
2023-05-14T13:25:36.584Z,33.62
2023-05-14T13:28:03.145Z,32.63
2023-05-14T13:30:29.700Z,31.37
2023-05-14T13:32:56.304Z,31.48
2023-05-14T13:35:23.060Z,31.40
2023-05-14T13:37:49.839Z,32.66
2023-05-14T13:40:16.729Z,33.08
2023-05-14T13:42:43.240Z,33.36
2023-05-14T13:45:10.134Z,33.18
2023-05-14T13:47:36.710Z,33.65
2023-05-14T13:50:03.426Z,32.63
2023-05-14T13:52:29.983Z,31.51
2023-05-14T13:54:56.508Z,30.93
2023-05-14T13:57:23.007Z,30.79
2023-05-14T13:59:49.612Z,30.97
2023-05-14T14:02:16.212Z,30.44
2023-05-14T14:04:42.928Z,30.93
2023-05-14T14:07:09.527Z,30.24
2023-05-14T14:09:36.051Z,30.45
2023-05-14T14:12:06.121Z,30.36
2023-05-14T14:14:32.637Z,29.51
2023-05-14T14:16:59.189Z,28.49
2023-05-14T14:19:26.290Z,28.83
2023-05-14T14:21:52.802Z,27.43
2023-05-14T14:24:19.423Z,26.67
2023-05-14T14:26:45.954Z,26.95
2023-05-14T14:29:12.449Z,26.99
2023-05-14T14:31:39.052Z,26.99
2023-05-14T14:34:05.622Z,27.80
2023-05-14T14:36:32.171Z,28.00
2023-05-14T14:38:58.763Z,28.36
2023-05-14T14:41:25.338Z,28.38
2023-05-14T14:43:51.899Z,28.55
2023-05-14T14:46:18.448Z,28.07
2023-05-14T14:48:44.995Z,28.07
2023-05-14T14:51:11.564Z,28.01
2023-05-14T14:53:38.120Z,27.68
2023-05-14T14:56:04.936Z,28.41
2023-05-14T14:58:31.515Z,29.14
2023-05-14T15:00:58.198Z,29.75
2023-05-14T15:03:25.316Z,29.49
2023-05-14T15:05:52.096Z,29.82
2023-05-14T15:08:18.666Z,30.25
2023-05-14T15:10:45.394Z,31.05
2023-05-14T15:13:12.110Z,31.78
2023-05-14T15:15:38.696Z,31.34
2023-05-14T15:18:05.286Z,32.10
2023-05-14T15:20:31.876Z,32.19
2023-05-14T15:22:58.382Z,31.61
2023-05-14T15:25:26.695Z,32.13
2023-05-14T15:27:53.390Z,31.67
2023-05-14T15:30:20.049Z,32.55
2023-05-14T15:32:46.744Z,32.44
2023-05-14T15:35:13.415Z,31.88
2023-05-14T15:37:41.625Z,32.03
2023-05-14T15:40:08.515Z,32.28
2023-05-14T15:42:38.493Z,31.38
2023-05-14T15:45:05.594Z,30.03
2023-05-14T15:47:32.233Z,30.77
2023-05-14T15:49:59.139Z,32.49
2023-05-14T15:52:27.388Z,33.24
2023-05-14T15:54:53.969Z,32.54
2023-05-14T15:57:20.536Z,32.33
2023-05-14T15:59:47.249Z,32.54
2023-05-14T16:02:14.323Z,32.94
2023-05-14T16:04:40.865Z,33.21
2023-05-14T16:07:09.550Z,33.15
2023-05-14T16:09:36.415Z,34.01
2023-05-14T16:12:03.085Z,34.26
2023-05-14T16:14:29.679Z,34.12
2023-05-14T16:16:56.427Z,35.02
2023-05-14T16:19:22.991Z,34.67
2023-05-14T16:21:49.558Z,35.37
2023-05-14T16:24:17.944Z,35.29
2023-05-14T16:26:44.565Z,34.97
2023-05-14T16:29:11.108Z,34.52
2023-05-14T16:31:37.895Z,34.34
2023-05-14T16:34:04.587Z,34.58
2023-05-14T16:36:31.119Z,34.64
2023-05-14T16:39:07.112Z,34.71
2023-05-14T16:41:35.216Z,34.86
2023-05-14T16:44:01.771Z,34.87
2023-05-14T16:46:28.572Z,35.48
2023-05-14T16:48:55.218Z,35.55
2023-05-14T16:51:21.789Z,35.95
2023-05-14T16:53:48.328Z,36.28
2023-05-14T16:56:14.882Z,37.01
2023-05-14T16:58:42.370Z,37.21
2023-05-14T17:01:10.050Z,37.78
2023-05-14T17:03:36.898Z,38.32
2023-05-14T17:06:03.559Z,38.41
2023-05-14T17:08:30.356Z,38.65
2023-05-14T17:10:56.951Z,38.40
2023-05-14T17:13:23.591Z,38.15
2023-05-14T17:15:50.242Z,38.46
2023-05-14T17:18:16.922Z,38.67
2023-05-14T17:20:43.468Z,38.39
2023-05-14T17:23:10.021Z,38.89
2023-05-14T17:25:36.546Z,38.98
2023-05-14T17:28:03.031Z,38.74
2023-05-14T17:30:29.615Z,39.74
2023-05-14T17:32:56.180Z,40.18
2023-05-14T17:35:23.112Z,40.86
2023-05-14T17:37:49.756Z,41.07
2023-05-14T17:40:16.304Z,41.48
2023-05-14T17:42:43.354Z,41.66
2023-05-14T17:45:10.141Z,41.52
2023-05-14T17:47:36.701Z,41.58
2023-05-14T17:50:03.468Z,42.15
2023-05-14T17:52:30.048Z,42.31
2023-05-14T17:54:56.676Z,42.28
2023-05-14T17:57:23.180Z,42.23
2023-05-14T17:59:49.702Z,42.27
2023-05-14T18:02:16.300Z,41.78
2023-05-14T18:04:42.800Z,41.58
2023-05-14T18:07:09.329Z,41.98
2023-05-14T18:09:35.877Z,42.09
2023-05-14T18:12:02.476Z,42.47
2023-05-14T18:14:29.042Z,42.86
2023-05-14T18:16:56.471Z,42.87
2023-05-14T18:19:23.733Z,43.48
2023-05-14T18:21:50.321Z,43.43
2023-05-14T18:24:16.945Z,44.10
2023-05-14T18:26:43.476Z,43.91
2023-05-14T18:29:10.065Z,43.88
2023-05-14T18:31:36.663Z,44.54
2023-05-14T18:34:03.447Z,44.84
2023-05-14T18:36:30.065Z,45.24
2023-05-14T18:38:56.661Z,45.28
2023-05-14T18:41:23.258Z,45.28
2023-05-14T18:43:49.791Z,45.58
2023-05-14T18:46:16.345Z,45.78
2023-05-14T18:48:42.967Z,46.22
2023-05-14T18:51:09.549Z,46.91
2023-05-14T18:53:36.125Z,47.16
2023-05-14T18:56:02.705Z,47.24
2023-05-14T18:58:29.250Z,47.36
2023-05-14T19:00:55.844Z,48.25
2023-05-14T19:03:22.691Z,48.53
2023-05-14T19:05:49.504Z,48.70
2023-05-14T19:08:16.117Z,48.89
2023-05-14T19:10:42.672Z,48.94
2023-05-14T19:13:09.181Z,48.80
2023-05-14T19:15:35.926Z,49.31
2023-05-14T19:18:02.677Z,49.28
2023-05-14T19:20:29.453Z,49.44
2023-05-14T19:22:56.041Z,50.15
2023-05-14T19:25:22.590Z,50.17
2023-05-14T19:27:49.095Z,50.38
2023-05-14T19:30:15.672Z,50.46
2023-05-14T19:32:42.257Z,50.99
2023-05-14T19:35:09.186Z,51.41
2023-05-14T19:37:35.729Z,51.70
2023-05-14T19:40:02.321Z,51.92
2023-05-14T19:42:28.919Z,52.00
2023-05-14T19:44:55.456Z,52.38
2023-05-14T19:47:21.985Z,52.11
2023-05-14T19:49:48.523Z,52.79
2023-05-14T19:52:15.076Z,52.76
2023-05-14T19:54:41.609Z,53.05
2023-05-14T19:57:09.001Z,53.10
2023-05-14T19:59:35.496Z,53.59
2023-05-14T22:04:29.192Z,63.52
2023-05-14T22:06:55.893Z,63.80
2023-05-14T22:09:22.426Z,63.75
2023-05-14T22:11:48.977Z,64.03
2023-05-14T22:14:15.468Z,64.87
2023-05-14T22:16:42.028Z,64.89
2023-05-14T22:19:08.680Z,65.38
2023-05-14T22:21:35.306Z,65.27
2023-05-14T22:24:01.898Z,65.82
2023-05-14T22:26:28.434Z,66.29
2023-05-14T22:28:55.001Z,65.84
2023-05-14T22:31:21.590Z,66.26
2023-05-14T22:33:48.185Z,66.29
2023-05-14T22:36:14.716Z,66.51
2023-05-14T22:38:41.310Z,66.93
2023-05-14T22:41:07.968Z,67.67
2023-05-14T22:43:34.496Z,67.72
2023-05-14T22:46:01.126Z,68.19
2023-05-14T22:48:27.678Z,67.46
2023-05-14T22:50:54.207Z,68.71
2023-05-14T22:53:20.755Z,68.79
2023-05-14T22:55:47.380Z,68.46
2023-05-14T22:58:13.938Z,68.66
2023-05-14T23:00:40.444Z,68.95
2023-05-14T23:03:07.143Z,68.89
2023-05-14T23:05:33.760Z,69.82
2023-05-14T23:08:00.280Z,69.80
2023-05-14T23:10:26.822Z,69.66
2023-05-14T23:12:53.352Z,70.10
2023-05-14T23:15:19.883Z,70.20
2023-05-14T23:17:46.522Z,70.39
2023-05-14T23:20:13.118Z,70.69
2023-05-14T23:22:40.167Z,71.72
2023-05-14T23:25:07.359Z,70.66
2023-05-14T23:27:34.446Z,71.18
2023-05-14T23:30:00.997Z,71.22
2023-05-14T23:32:27.554Z,71.54
2023-05-14T23:34:54.243Z,71.98
2023-05-14T23:37:20.868Z,72.09
2023-05-14T23:39:47.420Z,72.06
2023-05-14T23:42:13.920Z,72.66
2023-05-14T23:44:40.458Z,72.42
2023-05-14T23:47:07.092Z,73.07
2023-05-14T23:49:33.571Z,73.61
2023-05-14T23:52:00.113Z,73.04
2023-05-14T23:54:26.616Z,73.72
2023-05-14T23:56:53.145Z,73.67
2023-05-14T23:59:19.671Z,73.87
